createdAt,value
2023-08-28T00:01:39.237Z,100658.78
2023-08-28T00:04:08.082Z,100658.22
2023-08-28T00:06:35.950Z,100656.66
2023-08-28T00:09:03.910Z,100662.00
2023-08-28T00:11:31.662Z,100659.31
2023-08-28T00:13:59.789Z,100657.03
2023-08-28T00:16:27.518Z,100663.03
2023-08-28T00:18:56.062Z,100660.66
2023-08-28T00:21:23.969Z,100663.22
2023-08-28T00:23:51.745Z,100669.41
2023-08-28T00:26:19.447Z,100673.84
2023-08-28T00:28:47.198Z,100673.50
2023-08-28T00:31:14.929Z,100677.63
2023-08-28T00:33:42.710Z,100674.28
2023-08-28T00:36:10.460Z,100677.28
2023-08-28T00:38:38.241Z,100680.75
2023-08-28T00:41:07.812Z,100680.16
2023-08-28T00:43:35.626Z,100686.63
2023-08-28T00:46:04.507Z,100682.44
2023-08-28T00:48:33.810Z,100676.75
2023-08-28T00:51:02.524Z,100678.47
2023-08-28T00:53:30.359Z,100683.69
2023-08-28T00:55:58.263Z,100685.22
2023-08-28T00:58:26.147Z,100679.69
2023-08-28T01:00:53.828Z,100678.38
2023-08-28T01:03:23.002Z,100685.72
2023-08-28T01:06:18.495Z,100686.00
2023-08-28T01:09:16.553Z,100683.50
2023-08-28T01:12:08.028Z,100678.44
2023-08-28T01:15:08.291Z,100696.16
2023-08-28T01:17:39.503Z,100684.47
2023-08-28T01:20:14.132Z,100679.47
2023-08-28T01:23:12.928Z,100677.81
2023-08-28T01:25:41.179Z,100674.38
2023-08-28T01:28:10.066Z,100674.75
2023-08-28T01:30:37.828Z,100675.25
2023-08-28T01:33:05.859Z,100685.84
2023-08-28T01:35:34.553Z,100684.88
2023-08-28T01:38:30.355Z,100687.53
2023-08-28T01:41:12.442Z,100701.38
2023-08-28T01:43:47.690Z,100690.47
2023-08-28T01:46:17.114Z,100705.81
2023-08-28T01:48:54.968Z,100687.69
2023-08-28T01:51:23.767Z,100689.88
2023-08-28T01:53:53.639Z,100694.22
2023-08-28T01:56:25.608Z,100697.91
2023-08-28T01:58:56.506Z,100687.41
2023-08-28T02:01:26.912Z,100680.38
2023-08-28T02:03:55.017Z,100683.44
2023-08-28T02:06:23.082Z,100677.47
2023-08-28T02:08:50.937Z,100681.28
2023-08-28T02:11:18.746Z,100675.16
2023-08-28T02:13:46.729Z,100666.03
2023-08-28T02:16:15.112Z,100663.13
2023-08-28T02:18:43.145Z,100663.75
2023-08-28T02:21:10.874Z,100676.38
2023-08-28T02:23:38.718Z,100677.72
2023-08-28T02:26:06.487Z,100685.53
2023-08-28T02:28:34.316Z,100684.63
2023-08-28T02:31:04.815Z,100684.06
2023-08-28T02:33:33.577Z,100686.66
2023-08-28T02:36:02.707Z,100689.25
2023-08-28T02:38:30.649Z,100691.31
2023-08-28T02:41:06.618Z,100696.16
2023-08-28T02:43:35.313Z,100705.19
2023-08-28T02:46:03.915Z,100710.25
2023-08-28T02:48:31.876Z,100714.09
2023-08-28T02:51:00.821Z,100702.28
2023-08-28T02:53:29.082Z,100721.88
2023-08-28T02:56:18.571Z,100730.72
2023-08-28T02:58:46.709Z,100738.28
2023-08-28T03:01:14.550Z,100731.34
2023-08-28T03:03:42.425Z,100727.72
2023-08-28T03:06:10.341Z,100737.81
2023-08-28T03:08:38.165Z,100734.31
2023-08-28T03:11:05.949Z,100736.38
2023-08-28T03:13:33.791Z,100736.13
2023-08-28T03:16:01.752Z,100739.63
2023-08-28T03:18:29.672Z,100747.34
2023-08-28T03:20:57.548Z,100743.00
2023-08-28T03:23:25.429Z,100742.28
2023-08-28T03:25:54.942Z,100747.41
2023-08-28T03:28:22.652Z,100742.91
2023-08-28T03:30:50.404Z,100743.13
2023-08-28T03:33:18.275Z,100748.59
2023-08-28T03:35:46.052Z,100746.94
2023-08-28T03:38:14.637Z,100754.34
2023-08-28T03:40:42.423Z,100756.41
2023-08-28T03:43:10.231Z,100759.06
2023-08-28T03:45:39.474Z,100763.91
2023-08-28T03:48:07.841Z,100775.34
2023-08-28T03:50:36.384Z,100769.63
2023-08-28T03:53:05.514Z,100759.94
2023-08-28T03:55:33.910Z,100760.09
2023-08-28T03:58:04.996Z,100760.53
2023-08-28T04:00:34.133Z,100754.84
2023-08-28T04:03:02.645Z,100752.47
2023-08-28T04:05:34.217Z,100756.63
2023-08-28T04:08:02.386Z,100760.41
2023-08-28T04:10:30.187Z,100750.16
2023-08-28T04:13:00.421Z,100746.19
2023-08-28T04:15:29.234Z,100751.81
2023-08-28T04:17:58.919Z,100738.81
2023-08-28T04:20:26.857Z,100736.56
2023-08-28T04:22:55.342Z,100725.44
2023-08-28T04:25:23.297Z,100716.22
2023-08-28T04:27:51.068Z,100723.88
2023-08-28T04:30:19.530Z,100721.63
2023-08-28T04:32:47.398Z,100715.06
2023-08-28T04:35:15.436Z,100713.28
2023-08-28T04:37:43.253Z,100719.44
2023-08-28T04:40:11.832Z,100716.16
2023-08-28T04:42:39.602Z,100716.59
2023-08-28T04:45:08.017Z,100710.22
2023-08-28T04:47:36.515Z,100703.19
2023-08-28T04:50:04.793Z,100698.13
2023-08-28T04:52:32.851Z,100698.00
2023-08-28T04:55:01.337Z,100696.66
2023-08-28T04:57:29.188Z,100704.22
2023-08-28T04:59:57.030Z,100702.25
2023-08-28T05:02:25.416Z,100697.34
2023-08-28T05:04:53.200Z,100706.22
2023-08-28T05:07:22.856Z,100704.34
2023-08-28T05:09:50.590Z,100687.91
2023-08-28T05:12:20.310Z,100700.16
2023-08-28T05:14:49.183Z,100690.38
2023-08-28T05:17:17.218Z,100693.44
2023-08-28T05:19:45.001Z,100706.66
2023-08-28T05:22:12.840Z,100705.41
2023-08-28T05:24:41.253Z,100710.53
2023-08-28T05:27:09.580Z,100698.50
2023-08-28T05:29:37.409Z,100696.50
2023-08-28T05:32:05.778Z,100692.66
2023-08-28T05:34:33.737Z,100702.88
2023-08-28T05:37:01.513Z,100688.28
2023-08-28T05:39:29.305Z,100704.50
2023-08-28T05:41:57.045Z,100701.22
2023-08-28T05:44:26.530Z,100709.22
2023-08-28T05:46:54.391Z,100695.25
2023-08-28T05:49:22.361Z,100696.56
2023-08-28T05:51:50.187Z,100713.75
2023-08-28T05:54:17.935Z,100711.41
2023-08-28T05:56:45.808Z,100704.06
2023-08-28T05:59:13.608Z,100716.59
2023-08-28T06:01:42.329Z,100725.47
2023-08-28T06:04:10.369Z,100715.38
2023-08-28T06:06:39.783Z,100716.22
2023-08-28T06:09:08.792Z,100728.13
2023-08-28T06:11:36.606Z,100723.56
2023-08-28T06:14:06.191Z,100737.16
2023-08-28T06:16:34.811Z,100729.06
2023-08-28T06:19:04.743Z,100724.84
2023-08-28T06:21:33.570Z,100731.00
2023-08-28T06:24:01.610Z,100729.03
2023-08-28T06:26:29.472Z,100731.72
2023-08-28T06:28:59.074Z,100726.47
2023-08-28T06:31:26.819Z,100727.34
2023-08-28T06:33:54.519Z,100721.75
2023-08-28T06:36:22.274Z,100723.56
2023-08-28T06:38:53.186Z,100725.06
2023-08-28T06:41:21.044Z,100727.66
2023-08-28T06:43:49.888Z,100741.13
2023-08-28T06:46:17.714Z,100741.13
2023-08-28T06:48:45.442Z,100754.53
2023-08-28T06:51:13.209Z,100741.78
2023-08-28T06:53:41.118Z,100753.81
2023-08-28T06:56:09.385Z,100765.78
2023-08-28T06:58:37.371Z,100768.31
2023-08-28T07:01:05.510Z,100764.34
2023-08-28T07:03:33.417Z,100765.03
2023-08-28T07:06:01.254Z,100773.09
2023-08-28T07:08:28.990Z,100769.78
2023-08-28T07:10:56.929Z,100764.19
2023-08-28T07:13:24.962Z,100768.84
2023-08-28T07:15:52.571Z,100783.09
2023-08-28T07:18:20.410Z,100768.47
2023-08-28T07:20:48.334Z,100783.84
2023-08-28T07:23:16.193Z,100782.28
2023-08-28T07:25:45.517Z,100780.00
2023-08-28T07:28:13.610Z,100776.59
2023-08-28T07:30:43.084Z,100773.53
2023-08-28T07:33:11.371Z,100778.91
2023-08-28T07:35:42.890Z,100777.72
2023-08-28T07:38:10.772Z,100787.06
2023-08-28T07:40:38.515Z,100790.25
2023-08-28T07:43:06.473Z,100789.53
2023-08-28T07:45:34.288Z,100786.94
2023-08-28T07:48:02.059Z,100793.72
2023-08-28T07:50:31.890Z,100796.88
2023-08-28T07:52:59.686Z,100788.09
2023-08-28T07:55:27.987Z,100791.28
2023-08-28T07:57:56.739Z,100791.41
2023-08-28T08:00:24.949Z,100780.66
2023-08-28T08:02:53.438Z,100796.50
2023-08-28T08:05:21.452Z,100794.59
2023-08-28T08:07:50.227Z,100789.16
2023-08-28T08:10:18.032Z,100779.19
2023-08-28T08:12:46.311Z,100779.34
2023-08-28T08:15:14.058Z,100770.09
2023-08-28T08:17:43.867Z,100771.09
2023-08-28T08:20:13.839Z,100765.88
2023-08-28T08:22:43.559Z,100761.50
2023-08-28T08:25:11.989Z,100751.53
2023-08-28T08:27:45.757Z,100754.13
2023-08-28T08:30:14.817Z,100768.03
2023-08-28T08:32:47.248Z,100761.66
2023-08-28T08:35:15.464Z,100761.53
2023-08-28T08:37:43.191Z,100755.78
2023-08-28T08:40:17.602Z,100756.47
2023-08-28T08:42:45.914Z,100750.09
2023-08-28T08:45:13.663Z,100760.31
2023-08-28T08:47:48.200Z,100754.34
2023-08-28T08:50:20.164Z,100766.13
2023-08-28T08:52:49.180Z,100763.47
2023-08-28T08:55:39.579Z,100759.00
2023-08-28T08:58:11.967Z,100753.31
2023-08-28T09:00:45.094Z,100768.47
2023-08-28T09:03:15.437Z,100767.91
2023-08-28T09:05:44.671Z,100762.66
2023-08-28T09:08:17.031Z,100775.75
2023-08-28T09:10:49.105Z,100769.84
2023-08-28T09:13:17.139Z,100772.00
2023-08-28T09:15:45.071Z,100785.66
2023-08-28T09:18:13.364Z,100784.00
2023-08-28T09:20:41.175Z,100791.88
2023-08-28T09:23:09.035Z,100795.00
2023-08-28T09:25:39.055Z,100802.66
2023-08-28T09:28:06.983Z,100799.56
2023-08-28T09:30:40.350Z,100807.66
2023-08-28T09:33:09.630Z,100813.91
2023-08-28T09:35:42.867Z,100794.53
2023-08-28T09:38:12.124Z,100792.31
2023-08-28T09:40:42.561Z,100788.19
2023-08-28T09:43:14.899Z,100787.50
2023-08-28T09:45:46.594Z,100787.63
2023-08-28T09:48:15.437Z,100786.81
2023-08-28T09:50:44.419Z,100786.78
2023-08-28T09:53:16.666Z,100785.06
2023-08-28T09:59:04.544Z,100789.97
2023-08-28T10:01:36.329Z,100791.31
2023-08-28T10:04:11.746Z,100790.25
2023-08-28T10:06:52.135Z,100783.28
2023-08-28T10:09:23.874Z,100774.88
2023-08-28T10:11:52.158Z,100776.75
2023-08-28T10:14:24.224Z,100775.31
2023-08-28T10:17:02.169Z,100780.69
2023-08-28T10:19:59.786Z,100776.47
2023-08-28T10:22:29.795Z,100786.38
2023-08-28T10:24:59.503Z,100784.19
2023-08-28T10:27:27.538Z,100780.84
2023-08-28T10:29:57.053Z,100786.06
2023-08-28T10:32:25.725Z,100777.38
2023-08-28T10:34:55.069Z,100781.84
2023-08-28T10:37:28.727Z,100784.03
2023-08-28T10:40:03.282Z,100783.69
2023-08-28T10:42:32.635Z,100775.81
2023-08-28T10:45:02.591Z,100765.91
2023-08-28T10:47:31.531Z,100760.66
